KLNR/LNR METAR and TAF weather

Enter ICAO airport designator
Station Type Date Time Source
KLNR METAR 2019/10/23 06:56 UTC NOAA

KLNR 230656Z AUTO 26009KT 10SM FEW065 06/M01 A2974 RMK AO2 SLP069 T00611006


Station Type Date Time Source
KLNR Decoded METAR 2019/10/23 06:56 UTC NOAA

LONE ROCK TRI-COUNTY REG, WI, United States (KLNR) 43-13N 090-11W 217M
Oct 23, 2019 - 02:56 AM EDT / 2019.10.23 0656 UTC
Wind: from the W (260 degrees) at 10 MPH (9 KT):0
Visibility: 10 mile(s):0
Sky conditions: mostly clear
Temperature: 43.0 F (6.1 C)
Dew Point: 30.9 F (-0.6 C)
Relative Humidity: 62%
Pressure (altimeter): 29.74 in. Hg (1007 hPa)
ob: KLNR 230656Z AUTO 26009KT 10SM FEW065 06/M01 A2974 RMK AO2 SLP069 T00611006
cycle: 7

Station Type Date Time Source
KLNR TAF UTC NOAA

Error!

Example: see airport list